Emerald Leader — C6WP4 — position and weather

sailwx.info

Track history (hours):
 
Tides and Currents Weather Stations Pressure Air Temp Water Temp Dewpoint Dewpoint Depression Visibility Wind Speed Wind Dir Waves Ship Positions

Emerald Leader

Last reported at 2014-Oct-01 10:10 UTC. Time now 2014-Oct-01 18:30 UTC.
Position N 37°20' E 002°30'.

Length 176 m; draft 8.8 m.

Type: Cargo ship. MMSI: 308688000.

Date/timePositionNaut miles runAvg speedWind from/ knotsBaromVisibWave heightAir tempDewpointWater temp
2014-Oct-01 10:10N 37°20' E 002°30'1015.6
2014-Oct-01 09:33N 37°22' E 002°41'8015.6
2014-Oct-01 04:24N 37°34' E 004°21'1314.8
2014-Oct-01 03:33N 37°35' E 004°37'6815.1
2014-Sep-30 23:04N 37°44' E 006°02'32115.5
2014-Sep-30 02:22N 38°27' E 012°47'1215.3
2014-Sep-30 01:33N 38°28' E 013°03'1515.5
2014-Sep-30 00:33N 38°26' E 013°22'1615.5
2014-Sep-29 23:33N 38°24' E 013°42'48011.6
2014-Sep-28 06:20N 36°50' E 023°36'4716.3
2014-Sep-28 03:28N 37°31' E 024°05'28813.5
2014-Sep-27 06:05N 40°26' E 028°60'4 7.6
2014-Sep-27 05:34N 40°25' E 029°05'0 0.0
2014-Sep-27 03:31N 40°25' E 029°05'0 0.0
2014-Sep-27 00:07N 40°25' E 029°05'0 0.0
2014-Sep-26 22:19N 40°25' E 029°05'0 0.6
2014-Sep-26 21:33N 40°25' E 029°05'18 6.0
2014-Sep-26 18:34N 40°42' E 028°57'1615.9
2014-Sep-26 17:33N 40°44' E 029°18'1111.0
2014-Sep-26 16:32N 40°45' E 029°33'  
2014-Sep-24 03:24N 40°44' E 029°39'910.8
2014-Sep-24 02:33N 40°44' E 029°27'7 6.5
2014-Sep-24 01:32N 40°43' E 029°18'1313.0
2014-Sep-24 00:33N 40°44' E 029°01'16713.3
2014-Sep-23 12:04N 39°35' E 025°43'815.2
2014-Sep-23 11:33N 39°28' E 025°38'1816.0
2014-Sep-23 10:24N 39°12' E 025°27'8415.7
2014-Sep-23 05:04N 37°58' E 024°38'915.9
2014-Sep-23 04:32N 37°52' E 024°30'2215.6
2014-Sep-23 03:07N 37°37' E 024°10'915.5
2014-Sep-23 02:33N 37°35' E 023°59'1414.5
2014-Sep-23 01:33N 37°41' E 023°42'1515.2
2014-Sep-23 00:33N 37°55' E 023°37'2 2.1
2014-Sep-22 23:32N 37°58' E 023°36'0 0.0
2014-Sep-22 22:32N 37°58' E 023°36'0 0.0
2014-Sep-22 21:32N 37°58' E 023°36'0 0.0
2014-Sep-22 20:32N 37°58' E 023°36'0 0.0
2014-Sep-22 19:32N 37°58' E 023°36'0 0.0
2014-Sep-22 18:31N 37°58' E 023°36'0 0.0
2014-Sep-22 17:30N 37°58' E 023°36'1 0.9
2014-Sep-22 16:34N 37°57' E 023°36'3 3.4
2014-Sep-22 15:34N 37°54' E 023°38'1 0.8
2014-Sep-22 14:34N 37°53' E 023°38'6 5.9
2014-Sep-22 13:33N 37°48' E 023°41'1514.9
2014-Sep-22 12:34N 37°33' E 023°45'1616.0
2014-Sep-22 11:34N 37°17' E 023°42'1616.3
2014-Sep-22 10:34N 37°01' E 023°39'1616.0
2014-Sep-22 09:33N 36°47' E 023°31'1615.3
2014-Sep-22 08:32N 36°33' E 023°22'  
Track history (hours):
 
Tides and Currents Weather Stations Pressure Air Temp Water Temp Dewpoint Dewpoint Depression Visibility Wind Speed Wind Dir Waves Ship Positions

Emerald Leader

Last reported at 2014-Oct-01 10:10 UTC. Time now 2014-Oct-01 18:30 UTC.
Position N 37°20' E 002°30'.

Length 176 m; draft 8.8 m.

Type: Cargo ship. MMSI: 308688000.

Date/timePositionNaut miles runAvg speedWind from/ knotsBaromVisibWave heightAir tempDewpointWater temp
2014-Oct-01 10:10N 37°20' E 002°30'1015.6
2014-Oct-01 09:33N 37°22' E 002°41'8015.6
2014-Oct-01 04:24N 37°34' E 004°21'1314.8
2014-Oct-01 03:33N 37°35' E 004°37'6815.1
2014-Sep-30 23:04N 37°44' E 006°02'32115.5
2014-Sep-30 02:22N 38°27' E 012°47'1215.3
2014-Sep-30 01:33N 38°28' E 013°03'1515.5
2014-Sep-30 00:33N 38°26' E 013°22'1615.5
2014-Sep-29 23:33N 38°24' E 013°42'48011.6
2014-Sep-28 06:20N 36°50' E 023°36'4716.3
2014-Sep-28 03:28N 37°31' E 024°05'28813.5
2014-Sep-27 06:05N 40°26' E 028°60'4 7.6
2014-Sep-27 05:34N 40°25' E 029°05'0 0.0
2014-Sep-27 03:31N 40°25' E 029°05'0 0.0
2014-Sep-27 00:07N 40°25' E 029°05'0 0.0
2014-Sep-26 22:19N 40°25' E 029°05'0 0.6
2014-Sep-26 21:33N 40°25' E 029°05'18 6.0
2014-Sep-26 18:34N 40°42' E 028°57'1615.9
2014-Sep-26 17:33N 40°44' E 029°18'1111.0
2014-Sep-26 16:32N 40°45' E 029°33'  
2014-Sep-24 03:24N 40°44' E 029°39'910.8
2014-Sep-24 02:33N 40°44' E 029°27'7 6.5
2014-Sep-24 01:32N 40°43' E 029°18'1313.0
2014-Sep-24 00:33N 40°44' E 029°01'16713.3
2014-Sep-23 12:04N 39°35' E 025°43'815.2
2014-Sep-23 11:33N 39°28' E 025°38'1816.0
2014-Sep-23 10:24N 39°12' E 025°27'8415.7
2014-Sep-23 05:04N 37°58' E 024°38'915.9
2014-Sep-23 04:32N 37°52' E 024°30'2215.6
2014-Sep-23 03:07N 37°37' E 024°10'915.5
2014-Sep-23 02:33N 37°35' E 023°59'1414.5
2014-Sep-23 01:33N 37°41' E 023°42'1515.2
2014-Sep-23 00:33N 37°55' E 023°37'2 2.1
2014-Sep-22 23:32N 37°58' E 023°36'0 0.0
2014-Sep-22 22:32N 37°58' E 023°36'0 0.0
2014-Sep-22 21:32N 37°58' E 023°36'0 0.0
2014-Sep-22 20:32N 37°58' E 023°36'0 0.0
2014-Sep-22 19:32N 37°58' E 023°36'0 0.0
2014-Sep-22 18:31N 37°58' E 023°36'0 0.0
2014-Sep-22 17:30N 37°58' E 023°36'1 0.9
2014-Sep-22 16:34N 37°57' E 023°36'3 3.4
2014-Sep-22 15:34N 37°54' E 023°38'1 0.8
2014-Sep-22 14:34N 37°53' E 023°38'6 5.9
2014-Sep-22 13:33N 37°48' E 023°41'1514.9
2014-Sep-22 12:34N 37°33' E 023°45'1616.0
2014-Sep-22 11:34N 37°17' E 023°42'1616.3
2014-Sep-22 10:34N 37°01' E 023°39'1616.0
2014-Sep-22 09:33N 36°47' E 023°31'1615.3
2014-Sep-22 08:32N 36°33' E 023°22'  

Dump ship's entire track history